createdAt,value
2023-02-24T00:04:40.265Z,1.85
2023-02-24T00:09:46.460Z,1.76
2023-02-24T00:14:52.693Z,1.74
2023-02-24T00:19:58.796Z,1.58
2023-02-24T00:25:04.946Z,1.54
2023-02-24T00:30:11.017Z,1.79
2023-02-24T00:35:17.195Z,1.59
2023-02-24T00:40:23.321Z,1.67
2023-02-24T00:45:29.503Z,1.57
2023-02-24T00:50:35.556Z,1.62
2023-02-24T00:55:41.692Z,1.68
2023-02-24T01:00:47.757Z,1.54
2023-02-24T01:05:53.911Z,2.03
2023-02-24T01:10:59.999Z,1.56
2023-02-24T01:16:06.458Z,1.53
2023-02-24T01:21:12.508Z,1.60
2023-02-24T01:26:18.761Z,1.65
2023-02-24T01:31:25.312Z,1.50
2023-02-24T01:36:30.553Z,1.50
2023-02-24T01:41:36.697Z,1.75
2023-02-24T01:46:42.959Z,1.73
2023-02-24T01:51:48.965Z,1.78
2023-02-24T01:56:55.131Z,1.54
2023-02-24T02:02:01.320Z,1.71
2023-02-24T02:07:07.594Z,1.65
2023-02-24T02:12:13.692Z,1.69
2023-02-24T02:17:19.898Z,1.53
2023-02-24T02:22:25.974Z,1.54
2023-02-24T02:27:32.131Z,1.55
2023-02-24T02:32:38.456Z,1.52
2023-02-24T02:37:44.397Z,1.40
2023-02-24T02:42:50.537Z,1.85
2023-02-24T02:47:56.717Z,1.57
2023-02-24T02:53:02.804Z,1.67
2023-02-24T02:58:09.873Z,1.49
2023-02-24T03:03:15.970Z,1.86
2023-02-24T03:08:22.143Z,1.61
2023-02-24T03:13:28.320Z,1.61
2023-02-24T03:18:34.480Z,1.69
2023-02-24T03:23:40.554Z,1.75
2023-02-24T03:28:46.797Z,1.55
2023-02-24T03:33:52.911Z,1.68
2023-02-24T03:38:59.105Z,1.65
2023-02-24T03:44:05.251Z,1.70
2023-02-24T03:49:11.464Z,1.70
2023-02-24T03:54:17.560Z,1.54
2023-02-24T03:59:23.754Z,1.70
2023-02-24T04:04:29.930Z,1.59
2023-02-24T04:09:36.100Z,1.89
2023-02-24T04:14:42.317Z,1.70
2023-02-24T04:19:48.452Z,1.66
2023-02-24T04:24:54.533Z,1.88
2023-02-24T04:30:01.030Z,1.50
2023-02-24T04:35:07.118Z,1.75
2023-02-24T04:40:13.350Z,1.57
2023-02-24T04:45:19.418Z,1.84
2023-02-24T04:50:25.641Z,1.70
2023-02-24T04:55:31.758Z,1.80
2023-02-24T05:00:38.082Z,1.58
2023-02-24T05:05:44.237Z,1.79
2023-02-24T05:10:50.411Z,1.79
2023-02-24T05:15:56.512Z,1.65
2023-02-24T05:21:02.640Z,1.61
2023-02-24T05:26:08.747Z,1.82
2023-02-24T05:31:15.295Z,1.60
2023-02-24T05:36:21.073Z,1.57
2023-02-24T05:41:27.353Z,1.65
2023-02-24T05:46:33.459Z,1.44
2023-02-24T05:51:39.660Z,1.57
2023-02-24T05:56:45.738Z,1.60
2023-02-24T06:01:52.328Z,1.63
2023-02-24T06:06:58.451Z,1.59
2023-02-24T06:12:04.663Z,1.49
2023-02-24T06:17:10.676Z,1.71
2023-02-24T06:22:17.146Z,1.55
2023-02-24T06:27:23.221Z,1.65
2023-02-24T06:32:29.603Z,1.71
2023-02-24T06:37:35.518Z,1.72
2023-02-24T06:42:41.700Z,1.71
2023-02-24T06:47:47.780Z,1.81
2023-02-24T06:53:51.331Z,1.53
2023-02-24T06:58:57.597Z,1.63
2023-02-24T07:04:03.821Z,1.73
2023-02-24T07:09:09.890Z,1.51
2023-02-24T07:14:16.227Z,1.60
2023-02-24T07:19:22.232Z,1.68
2023-02-24T07:24:28.391Z,1.84
2023-02-24T07:29:34.462Z,1.65
2023-02-24T07:34:40.941Z,1.85
2023-02-24T07:39:46.688Z,1.80
2023-02-24T07:44:52.982Z,1.71
2023-02-24T07:49:59.040Z,1.70
2023-02-24T07:55:05.274Z,1.69
2023-02-24T08:00:13.106Z,1.89
2023-02-24T08:05:17.207Z,2.06
2023-02-24T08:10:23.250Z,1.91
2023-02-24T08:15:29.481Z,2.06
2023-02-24T08:20:35.597Z,1.90
2023-02-24T08:25:41.909Z,2.02
2023-02-24T08:30:48.042Z,2.04
2023-02-24T08:35:54.134Z,2.11
2023-02-24T08:41:00.329Z,2.05
2023-02-24T08:46:06.556Z,2.18
2023-02-24T08:51:12.621Z,2.10
2023-02-24T08:56:18.954Z,2.34
2023-02-24T09:01:25.279Z,2.49
2023-02-24T09:06:30.540Z,2.28
2023-02-24T09:11:36.588Z,2.31
2023-02-24T09:16:42.793Z,2.48
2023-02-24T09:21:48.801Z,2.48
2023-02-24T09:26:55.024Z,2.70
2023-02-24T09:32:01.250Z,2.62
2023-02-24T09:37:07.271Z,2.86
2023-02-24T09:42:13.362Z,2.73
2023-02-24T09:47:19.551Z,2.90
2023-02-24T09:52:25.670Z,2.82
2023-02-24T09:57:31.924Z,2.90
2023-02-24T10:02:38.087Z,3.07
2023-02-24T10:07:44.419Z,3.01
2023-02-24T10:12:50.485Z,2.93
2023-02-24T10:17:56.656Z,3.09
2023-02-24T10:23:02.742Z,2.89
2023-02-24T10:28:08.946Z,2.96
2023-02-24T10:33:15.083Z,3.11
2023-02-24T10:38:21.241Z,2.93
2023-02-24T10:43:27.323Z,3.18
2023-02-24T10:48:41.429Z,3.12
2023-02-24T10:53:39.310Z,3.12
2023-02-24T10:58:45.317Z,2.91
2023-02-24T11:03:51.404Z,2.96
2023-02-24T11:08:57.564Z,3.06
2023-02-24T11:14:03.742Z,3.00
2023-02-24T11:19:09.959Z,3.24
2023-02-24T11:24:16.040Z,3.17
2023-02-24T11:29:22.273Z,3.12
2023-02-24T11:34:28.981Z,3.11
2023-02-24T11:39:34.022Z,3.03
2023-02-24T11:44:40.230Z,3.17
2023-02-24T11:49:46.534Z,3.19
2023-02-24T11:54:52.588Z,3.18
2023-02-24T11:56:06.035Z,3.56
2023-02-24T12:01:12.177Z,3.40
2023-02-24T12:06:18.464Z,3.13
2023-02-24T12:11:25.038Z,3.47
2023-02-24T12:16:30.195Z,3.71
2023-02-24T12:21:36.529Z,3.57
2023-02-24T12:26:42.725Z,3.46
2023-02-24T12:31:48.914Z,3.22
2023-02-24T12:36:54.890Z,1.80
2023-02-24T12:42:01.125Z,1.52
2023-02-24T12:47:07.224Z,2.12
2023-02-24T12:52:13.438Z,2.26
2023-02-24T12:57:19.505Z,2.42
2023-02-24T13:02:25.774Z,2.17
2023-02-24T13:07:31.813Z,2.48
2023-02-24T13:12:38.017Z,2.28
2023-02-24T13:17:44.317Z,2.09
2023-02-24T13:22:50.602Z,2.23
2023-02-24T13:27:56.678Z,2.28
2023-02-24T13:33:02.999Z,2.11
2023-02-24T13:38:09.084Z,2.03
2023-02-24T13:43:15.300Z,2.18
2023-02-24T13:48:21.449Z,2.14
2023-02-24T13:53:27.760Z,2.12
2023-02-24T13:58:33.858Z,2.20
2023-02-24T14:03:40.293Z,2.25
2023-02-24T14:08:46.458Z,2.18
2023-02-24T14:13:52.785Z,2.05
2023-02-24T14:18:58.912Z,1.67
2023-02-24T14:24:05.077Z,1.48
2023-02-24T14:29:11.132Z,1.59
2023-02-24T14:34:17.280Z,1.13
2023-02-24T14:39:23.418Z,1.30
2023-02-24T14:44:29.660Z,1.32
2023-02-24T14:49:35.715Z,1.21
2023-02-24T14:54:41.939Z,1.15
2023-02-24T15:00:20.790Z,1.28
2023-02-24T15:05:27.168Z,1.26
2023-02-24T15:10:35.403Z,1.04
2023-02-24T15:15:41.599Z,0.96
2023-02-24T15:20:47.671Z,1.13
2023-02-24T15:25:53.903Z,1.09
2023-02-24T15:31:00.243Z,1.49
2023-02-24T15:36:06.275Z,1.54
2023-02-24T15:41:12.349Z,1.58
2023-02-24T15:46:18.583Z,1.65
2023-02-24T15:51:24.572Z,1.74
2023-02-24T15:56:30.691Z,1.64
2023-02-24T16:01:36.792Z,1.58
2023-02-24T16:06:42.995Z,1.55
2023-02-24T16:11:49.077Z,1.68
2023-02-24T16:16:55.281Z,1.74
2023-02-24T16:22:01.296Z,1.72
2023-02-24T16:27:07.422Z,1.55
2023-02-24T16:32:13.635Z,1.57
2023-02-24T16:37:19.604Z,1.73
2023-02-24T16:42:25.655Z,1.80
2023-02-24T16:47:31.926Z,2.22
2023-02-24T16:52:37.974Z,2.27
2023-02-24T16:57:44.236Z,2.35
2023-02-24T17:02:50.334Z,2.38
2023-02-24T17:07:56.492Z,2.74
2023-02-24T17:13:02.552Z,3.14
2023-02-24T17:18:08.681Z,2.71
2023-02-24T17:23:14.737Z,2.67
2023-02-24T17:28:21.016Z,3.03
2023-02-24T17:33:27.072Z,2.82
2023-02-24T17:38:33.449Z,2.91
2023-02-24T17:43:39.507Z,2.86
2023-02-24T17:48:45.625Z,3.03
2023-02-24T17:53:51.677Z,2.77
2023-02-24T17:58:57.846Z,2.97
2023-02-24T18:04:03.925Z,3.05
2023-02-24T18:09:10.070Z,3.47
2023-02-24T18:14:16.303Z,3.06
2023-02-24T18:19:22.544Z,3.02
2023-02-24T18:24:28.709Z,2.96
2023-02-24T18:29:34.892Z,3.27
2023-02-24T18:34:40.971Z,3.18
2023-02-24T18:39:47.150Z,3.15
2023-02-24T18:44:53.217Z,3.34
2023-02-24T18:49:59.373Z,3.48
2023-02-24T18:55:05.440Z,3.48
2023-02-24T19:00:13.986Z,3.78
2023-02-24T19:05:17.327Z,3.74
2023-02-24T19:10:23.477Z,4.01
2023-02-24T19:15:29.556Z,3.38
2023-02-24T19:20:35.832Z,3.00
2023-02-24T19:25:41.892Z,3.03
2023-02-24T19:30:48.149Z,2.91
2023-02-24T19:35:54.169Z,3.00
2023-02-24T19:41:00.334Z,2.45
2023-02-24T19:46:06.422Z,2.83
2023-02-24T19:51:12.551Z,2.58
2023-02-24T19:56:18.607Z,3.10
2023-02-24T20:01:24.823Z,2.78
2023-02-24T20:06:31.787Z,2.47
2023-02-24T20:11:36.494Z,2.78
2023-02-24T20:16:42.587Z,2.59
2023-02-24T20:21:48.746Z,2.85
2023-02-24T20:26:54.884Z,2.79
2023-02-24T20:32:01.199Z,2.62
2023-02-24T20:37:07.182Z,2.98
2023-02-24T20:42:13.362Z,2.91
2023-02-24T20:47:19.408Z,3.15
2023-02-24T20:52:25.559Z,3.06
2023-02-24T20:57:31.632Z,2.75
2023-02-24T21:02:37.820Z,3.34
2023-02-24T21:07:43.877Z,3.32
2023-02-24T21:12:50.108Z,2.86
2023-02-24T21:17:56.182Z,3.13
2023-02-24T21:23:02.389Z,3.20
2023-02-24T21:28:08.445Z,3.24
2023-02-24T21:33:14.630Z,2.79
2023-02-24T21:38:20.689Z,3.18
2023-02-24T21:43:26.867Z,2.86
2023-02-24T21:48:32.965Z,3.84
2023-02-24T21:53:39.374Z,4.01
2023-02-24T21:58:45.319Z,3.72
2023-02-24T22:03:51.551Z,3.64
2023-02-24T22:08:57.604Z,3.82
2023-02-24T22:14:03.800Z,3.61
2023-02-24T22:19:09.853Z,3.59
2023-02-24T22:24:16.151Z,3.38
2023-02-24T22:29:22.459Z,3.09
2023-02-24T22:34:28.571Z,2.78
2023-02-24T22:39:34.629Z,2.25
2023-02-24T22:44:40.796Z,2.15
2023-02-24T22:49:46.848Z,2.11
2023-02-24T22:54:53.063Z,2.23
2023-02-24T22:59:59.135Z,2.26
2023-02-24T23:05:05.306Z,2.20
2023-02-24T23:10:11.419Z,2.24
2023-02-24T23:15:17.668Z,2.25
2023-02-24T23:20:23.669Z,2.16
2023-02-24T23:25:29.982Z,2.61
2023-02-24T23:30:36.095Z,2.49
2023-02-24T23:35:42.182Z,1.78
2023-02-24T23:40:50.429Z,1.78
2023-02-24T23:45:54.353Z,1.58
2023-02-24T23:51:00.371Z,1.82
2023-02-24T23:56:06.525Z,1.65
